sensor_id;sensor_type;location;lat;lon;timestamp;temperature;humidity
59311;DHT22;45078;51.654;21.250;2024-02-21T00:01:22;4.60;99.90
59311;DHT22;45078;51.654;21.250;2024-02-21T00:03:48;4.70;99.90
59311;DHT22;45078;51.654;21.250;2024-02-21T00:06:14;4.70;99.90
59311;DHT22;45078;51.654;21.250;2024-02-21T00:08:39;4.70;99.90
59311;DHT22;45078;51.654;21.250;2024-02-21T00:11:05;4.80;99.90
59311;DHT22;45078;51.654;21.250;2024-02-21T00:13:30;4.80;99.90
59311;DHT22;45078;51.654;21.250;2024-02-21T00:15:56;4.70;99.90
59311;DHT22;45078;51.654;21.250;2024-02-21T00:18:22;4.60;99.90
59311;DHT22;45078;51.654;21.250;2024-02-21T00:20:47;4.50;99.90
59311;DHT22;45078;51.654;21.250;2024-02-21T00:23:13;4.60;99.90
59311;DHT22;45078;51.654;21.250;2024-02-21T00:25:39;4.60;99.90
59311;DHT22;45078;51.654;21.250;2024-02-21T00:28:05;4.60;99.90
59311;DHT22;45078;51.654;21.250;2024-02-21T00:30:31;4.50;99.90
59311;DHT22;45078;51.654;21.250;2024-02-21T00:32:57;4.50;99.90
59311;DHT22;45078;51.654;21.250;2024-02-21T00:35:22;4.50;99.90
59311;DHT22;45078;51.654;21.250;2024-02-21T00:37:48;4.50;99.90
59311;DHT22;45078;51.654;21.250;2024-02-21T00:40:14;4.50;99.90
59311;DHT22;45078;51.654;21.250;2024-02-21T00:42:45;4.50;99.90
59311;DHT22;45078;51.654;21.250;2024-02-21T00:45:11;4.50;99.90
59311;DHT22;45078;51.654;21.250;2024-02-21T00:47:37;4.40;99.90
59311;DHT22;45078;51.654;21.250;2024-02-21T00:50:02;4.50;99.90
59311;DHT22;45078;51.654;21.250;2024-02-21T00:52:28;4.50;99.90
59311;DHT22;45078;51.654;21.250;2024-02-21T00:54:54;4.40;99.90
59311;DHT22;45078;51.654;21.250;2024-02-21T00:57:19;4.40;99.90
59311;DHT22;45078;51.654;21.250;2024-02-21T00:59:45;4.50;99.90
59311;DHT22;45078;51.654;21.250;2024-02-21T01:02:10;4.50;99.90
59311;DHT22;45078;51.654;21.250;2024-02-21T01:04:36;4.50;99.90
59311;DHT22;45078;51.654;21.250;2024-02-21T01:07:02;4.50;99.90
59311;DHT22;45078;51.654;21.250;2024-02-21T01:09:27;4.50;99.90
59311;DHT22;45078;51.654;21.250;2024-02-21T01:11:53;4.50;99.90
59311;DHT22;45078;51.654;21.250;2024-02-21T01:14:19;4.50;99.90
59311;DHT22;45078;51.654;21.250;2024-02-21T01:16:45;4.50;99.90
59311;DHT22;45078;51.654;21.250;2024-02-21T01:19:10;4.50;99.90
59311;DHT22;45078;51.654;21.250;2024-02-21T01:21:36;4.50;99.90
59311;DHT22;45078;51.654;21.250;2024-02-21T01:24:02;4.50;99.90
59311;DHT22;45078;51.654;21.250;2024-02-21T01:26:27;4.50;99.90
59311;DHT22;45078;51.654;21.250;2024-02-21T01:28:53;4.50;99.90
59311;DHT22;45078;51.654;21.250;2024-02-21T01:31:19;4.60;99.90
59311;DHT22;45078;51.654;21.250;2024-02-21T01:33:45;4.60;99.90
59311;DHT22;45078;51.654;21.250;2024-02-21T01:36:10;4.60;99.90
59311;DHT22;45078;51.654;21.250;2024-02-21T01:38:36;4.60;99.90
59311;DHT22;45078;51.654;21.250;2024-02-21T01:41:02;4.60;99.90
59311;DHT22;45078;51.654;21.250;2024-02-21T01:43:28;4.60;99.90
59311;DHT22;45078;51.654;21.250;2024-02-21T01:45:55;4.60;99.90
59311;DHT22;45078;51.654;21.250;2024-02-21T01:48:24;4.60;99.90
59311;DHT22;45078;51.654;21.250;2024-02-21T01:50:51;4.70;99.90
59311;DHT22;45078;51.654;21.250;2024-02-21T01:53:21;4.70;99.90
59311;DHT22;45078;51.654;21.250;2024-02-21T01:55:47;4.70;99.90
59311;DHT22;45078;51.654;21.250;2024-02-21T01:58:16;4.70;99.90
59311;DHT22;45078;51.654;21.250;2024-02-21T02:00:43;4.70;99.90
59311;DHT22;45078;51.654;21.250;2024-02-21T02:03:13;4.60;99.90
59311;DHT22;45078;51.654;21.250;2024-02-21T02:05:47;4.50;99.90
59311;DHT22;45078;51.654;21.250;2024-02-21T02:08:13;4.50;99.90
59311;DHT22;45078;51.654;21.250;2024-02-21T02:10:40;4.50;99.90
59311;DHT22;45078;51.654;21.250;2024-02-21T02:13:05;4.50;99.90
59311;DHT22;45078;51.654;21.250;2024-02-21T02:15:45;4.50;99.90
59311;DHT22;45078;51.654;21.250;2024-02-21T02:18:12;4.60;99.90
59311;DHT22;45078;51.654;21.250;2024-02-21T02:20:38;4.50;99.90
59311;DHT22;45078;51.654;21.250;2024-02-21T02:23:11;4.60;99.90
59311;DHT22;45078;51.654;21.250;2024-02-21T02:25:38;4.70;99.90
59311;DHT22;45078;51.654;21.250;2024-02-21T02:28:05;4.70;99.90
59311;DHT22;45078;51.654;21.250;2024-02-21T02:30:37;4.60;99.90
59311;DHT22;45078;51.654;21.250;2024-02-21T02:33:04;4.60;99.90
59311;DHT22;45078;51.654;21.250;2024-02-21T02:35:30;4.70;99.90
59311;DHT22;45078;51.654;21.250;2024-02-21T02:37:56;4.70;99.90
59311;DHT22;45078;51.654;21.250;2024-02-21T02:40:22;4.70;99.90
59311;DHT22;45078;51.654;21.250;2024-02-21T02:42:48;4.70;99.90
59311;DHT22;45078;51.654;21.250;2024-02-21T02:45:15;4.70;99.90
59311;DHT22;45078;51.654;21.250;2024-02-21T02:47:41;4.70;99.90
59311;DHT22;45078;51.654;21.250;2024-02-21T02:50:07;4.70;99.90
59311;DHT22;45078;51.654;21.250;2024-02-21T02:52:33;4.70;99.90
59311;DHT22;45078;51.654;21.250;2024-02-21T02:54:59;4.70;99.90
59311;DHT22;45078;51.654;21.250;2024-02-21T02:57:24;4.70;99.90
59311;DHT22;45078;51.654;21.250;2024-02-21T02:59:51;4.70;99.90
59311;DHT22;45078;51.654;21.250;2024-02-21T03:02:17;4.70;99.90
59311;DHT22;45078;51.654;21.250;2024-02-21T03:04:43;4.60;99.90
59311;DHT22;45078;51.654;21.250;2024-02-21T03:07:09;4.60;99.90
59311;DHT22;45078;51.654;21.250;2024-02-21T03:09:34;4.70;99.90
59311;DHT22;45078;51.654;21.250;2024-02-21T03:12:00;4.60;99.90
59311;DHT22;45078;51.654;21.250;2024-02-21T03:14:31;4.60;99.90
59311;DHT22;45078;51.654;21.250;2024-02-21T03:16:58;4.60;99.90
59311;DHT22;45078;51.654;21.250;2024-02-21T03:19:24;4.60;99.90
59311;DHT22;45078;51.654;21.250;2024-02-21T03:21:49;4.60;99.90
59311;DHT22;45078;51.654;21.250;2024-02-21T03:24:16;4.70;99.90
59311;DHT22;45078;51.654;21.250;2024-02-21T03:26:42;4.70;99.90
59311;DHT22;45078;51.654;21.250;2024-02-21T03:29:08;4.70;99.90
59311;DHT22;45078;51.654;21.250;2024-02-21T03:31:34;4.80;99.90
59311;DHT22;45078;51.654;21.250;2024-02-21T03:34:00;4.80;99.90
59311;DHT22;45078;51.654;21.250;2024-02-21T03:36:26;4.80;99.90
59311;DHT22;45078;51.654;21.250;2024-02-21T03:38:52;4.80;99.90
59311;DHT22;45078;51.654;21.250;2024-02-21T03:41:19;4.80;99.90
59311;DHT22;45078;51.654;21.250;2024-02-21T03:43:45;4.70;99.90
59311;DHT22;45078;51.654;21.250;2024-02-21T03:46:10;4.70;99.90
59311;DHT22;45078;51.654;21.250;2024-02-21T03:48:36;4.70;99.90
59311;DHT22;45078;51.654;21.250;2024-02-21T03:51:02;4.70;99.90
59311;DHT22;45078;51.654;21.250;2024-02-21T03:53:28;4.70;99.90
59311;DHT22;45078;51.654;21.250;2024-02-21T03:55:54;4.70;99.90
59311;DHT22;45078;51.654;21.250;2024-02-21T03:58:20;4.70;99.90
59311;DHT22;45078;51.654;21.250;2024-02-21T04:00:46;4.80;99.90
59311;DHT22;45078;51.654;21.250;2024-02-21T04:03:12;4.80;99.90
59311;DHT22;45078;51.654;21.250;2024-02-21T04:05:37;4.80;99.90
59311;DHT22;45078;51.654;21.250;2024-02-21T04:08:04;4.80;99.90
59311;DHT22;45078;51.654;21.250;2024-02-21T04:10:30;4.90;99.90
59311;DHT22;45078;51.654;21.250;2024-02-21T04:12:56;4.90;99.90
59311;DHT22;45078;51.654;21.250;2024-02-21T04:15:22;4.80;99.90
59311;DHT22;45078;51.654;21.250;2024-02-21T04:17:47;4.80;99.90
59311;DHT22;45078;51.654;21.250;2024-02-21T04:20:15;4.80;99.90
59311;DHT22;45078;51.654;21.250;2024-02-21T04:22:43;4.80;99.90
59311;DHT22;45078;51.654;21.250;2024-02-21T04:25:09;4.80;99.90
59311;DHT22;45078;51.654;21.250;2024-02-21T04:27:36;4.90;99.90
59311;DHT22;45078;51.654;21.250;2024-02-21T04:30:03;4.90;99.90
59311;DHT22;45078;51.654;21.250;2024-02-21T04:32:28;4.80;99.90
59311;DHT22;45078;51.654;21.250;2024-02-21T04:34:54;4.80;99.90
59311;DHT22;45078;51.654;21.250;2024-02-21T04:37:20;4.70;99.90
59311;DHT22;45078;51.654;21.250;2024-02-21T04:39:46;4.80;99.90
59311;DHT22;45078;51.654;21.250;2024-02-21T04:42:12;4.80;99.90
59311;DHT22;45078;51.654;21.250;2024-02-21T04:44:38;4.90;99.90
59311;DHT22;45078;51.654;21.250;2024-02-21T04:47:03;4.90;99.90
59311;DHT22;45078;51.654;21.250;2024-02-21T04:49:29;4.90;99.90
59311;DHT22;45078;51.654;21.250;2024-02-21T04:51:55;5.00;99.90
59311;DHT22;45078;51.654;21.250;2024-02-21T04:54:21;4.90;99.90
59311;DHT22;45078;51.654;21.250;2024-02-21T04:56:46;5.00;99.90
59311;DHT22;45078;51.654;21.250;2024-02-21T04:59:12;5.00;99.90
59311;DHT22;45078;51.654;21.250;2024-02-21T05:01:38;5.00;99.90
59311;DHT22;45078;51.654;21.250;2024-02-21T05:04:03;5.00;99.90
59311;DHT22;45078;51.654;21.250;2024-02-21T05:06:29;5.00;99.90
59311;DHT22;45078;51.654;21.250;2024-02-21T05:08:55;5.00;99.90
59311;DHT22;45078;51.654;21.250;2024-02-21T05:11:21;5.00;99.90
59311;DHT22;45078;51.654;21.250;2024-02-21T05:13:47;5.10;99.90
59311;DHT22;45078;51.654;21.250;2024-02-21T05:16:13;5.10;99.90
59311;DHT22;45078;51.654;21.250;2024-02-21T05:18:40;5.10;99.90
59311;DHT22;45078;51.654;21.250;2024-02-21T05:21:06;5.00;99.90
59311;DHT22;45078;51.654;21.250;2024-02-21T05:23:31;5.10;99.90
59311;DHT22;45078;51.654;21.250;2024-02-21T05:25:57;5.00;99.90
59311;DHT22;45078;51.654;21.250;2024-02-21T05:28:23;5.10;99.90
59311;DHT22;45078;51.654;21.250;2024-02-21T05:30:48;5.10;99.90
59311;DHT22;45078;51.654;21.250;2024-02-21T05:33:14;5.10;99.90
59311;DHT22;45078;51.654;21.250;2024-02-21T05:35:47;5.10;99.90
59311;DHT22;45078;51.654;21.250;2024-02-21T05:38:13;5.10;99.90
59311;DHT22;45078;51.654;21.250;2024-02-21T05:40:39;5.10;99.90
59311;DHT22;45078;51.654;21.250;2024-02-21T05:43:04;5.10;99.90
59311;DHT22;45078;51.654;21.250;2024-02-21T05:45:30;5.10;99.90
59311;DHT22;45078;51.654;21.250;2024-02-21T05:47:56;5.10;99.90
59311;DHT22;45078;51.654;21.250;2024-02-21T05:50:22;5.10;99.90
59311;DHT22;45078;51.654;21.250;2024-02-21T05:52:51;5.10;99.90
59311;DHT22;45078;51.654;21.250;2024-02-21T05:55:17;5.10;99.90
59311;DHT22;45078;51.654;21.250;2024-02-21T05:57:43;5.10;99.90
59311;DHT22;45078;51.654;21.250;2024-02-21T06:00:09;5.10;99.90
59311;DHT22;45078;51.654;21.250;2024-02-21T06:02:34;5.10;99.90
59311;DHT22;45078;51.654;21.250;2024-02-21T06:05:00;5.10;99.90
59311;DHT22;45078;51.654;21.250;2024-02-21T06:07:26;5.10;99.90
59311;DHT22;45078;51.654;21.250;2024-02-21T06:09:51;5.10;99.90
59311;DHT22;45078;51.654;21.250;2024-02-21T06:12:17;5.10;99.90
59311;DHT22;45078;51.654;21.250;2024-02-21T06:14:43;5.20;99.90
59311;DHT22;45078;51.654;21.250;2024-02-21T06:17:08;5.20;99.90
59311;DHT22;45078;51.654;21.250;2024-02-21T06:19:34;5.20;99.90
59311;DHT22;45078;51.654;21.250;2024-02-21T06:21:59;5.20;99.90
59311;DHT22;45078;51.654;21.250;2024-02-21T06:24:25;5.20;99.90
59311;DHT22;45078;51.654;21.250;2024-02-21T06:26:51;5.20;99.90
59311;DHT22;45078;51.654;21.250;2024-02-21T06:29:17;5.20;99.90
59311;DHT22;45078;51.654;21.250;2024-02-21T06:31:42;5.20;99.90
59311;DHT22;45078;51.654;21.250;2024-02-21T06:34:08;5.30;99.90
59311;DHT22;45078;51.654;21.250;2024-02-21T06:36:34;5.30;99.90
59311;DHT22;45078;51.654;21.250;2024-02-21T06:38:59;5.30;99.90
59311;DHT22;45078;51.654;21.250;2024-02-21T06:41:25;5.40;99.90
59311;DHT22;45078;51.654;21.250;2024-02-21T06:43:51;5.40;99.90
59311;DHT22;45078;51.654;21.250;2024-02-21T06:46:23;5.30;99.90
59311;DHT22;45078;51.654;21.250;2024-02-21T06:48:49;5.40;99.90
59311;DHT22;45078;51.654;21.250;2024-02-21T06:51:15;5.30;99.90
59311;DHT22;45078;51.654;21.250;2024-02-21T06:53:40;5.30;99.90
59311;DHT22;45078;51.654;21.250;2024-02-21T06:56:06;5.40;99.90
59311;DHT22;45078;51.654;21.250;2024-02-21T06:58:32;5.40;99.90
59311;DHT22;45078;51.654;21.250;2024-02-21T07:00:57;5.50;99.90
59311;DHT22;45078;51.654;21.250;2024-02-21T07:03:23;5.50;99.90
59311;DHT22;45078;51.654;21.250;2024-02-21T07:05:50;5.50;99.90
59311;DHT22;45078;51.654;21.250;2024-02-21T07:08:15;5.50;99.90
59311;DHT22;45078;51.654;21.250;2024-02-21T07:10:41;5.50;99.90
59311;DHT22;45078;51.654;21.250;2024-02-21T07:13:07;5.60;99.90
59311;DHT22;45078;51.654;21.250;2024-02-21T07:15:32;5.60;99.90
59311;DHT22;45078;51.654;21.250;2024-02-21T07:17:58;5.60;99.90
59311;DHT22;45078;51.654;21.250;2024-02-21T07:20:24;5.70;99.90
59311;DHT22;45078;51.654;21.250;2024-02-21T07:22:50;5.70;99.90
59311;DHT22;45078;51.654;21.250;2024-02-21T07:25:16;5.70;99.90
59311;DHT22;45078;51.654;21.250;2024-02-21T07:27:43;5.80;99.90
59311;DHT22;45078;51.654;21.250;2024-02-21T07:30:09;5.80;99.90
59311;DHT22;45078;51.654;21.250;2024-02-21T07:32:35;5.90;99.90
59311;DHT22;45078;51.654;21.250;2024-02-21T07:35:01;5.90;99.90
59311;DHT22;45078;51.654;21.250;2024-02-21T07:37:27;6.00;99.90
59311;DHT22;45078;51.654;21.250;2024-02-21T07:39:52;6.00;99.90
59311;DHT22;45078;51.654;21.250;2024-02-21T07:42:18;5.90;99.90
59311;DHT22;45078;51.654;21.250;2024-02-21T07:44:43;5.90;99.90
59311;DHT22;45078;51.654;21.250;2024-02-21T07:47:09;5.90;99.90
59311;DHT22;45078;51.654;21.250;2024-02-21T07:49:45;6.00;99.90
59311;DHT22;45078;51.654;21.250;2024-02-21T07:52:11;5.90;99.90
59311;DHT22;45078;51.654;21.250;2024-02-21T07:54:37;6.00;99.90
59311;DHT22;45078;51.654;21.250;2024-02-21T07:57:03;6.00;99.90
59311;DHT22;45078;51.654;21.250;2024-02-21T07:59:29;6.00;99.90
59311;DHT22;45078;51.654;21.250;2024-02-21T08:01:58;6.00;99.90
59311;DHT22;45078;51.654;21.250;2024-02-21T08:04:25;6.10;99.90
59311;DHT22;45078;51.654;21.250;2024-02-21T08:06:54;6.10;99.90
59311;DHT22;45078;51.654;21.250;2024-02-21T08:09:26;6.10;99.90
59311;DHT22;45078;51.654;21.250;2024-02-21T08:11:53;6.10;99.90
59311;DHT22;45078;51.654;21.250;2024-02-21T08:14:19;6.10;99.90
59311;DHT22;45078;51.654;21.250;2024-02-21T08:16:45;6.10;99.90
59311;DHT22;45078;51.654;21.250;2024-02-21T08:19:11;6.20;99.90
59311;DHT22;45078;51.654;21.250;2024-02-21T08:21:36;6.20;99.90
59311;DHT22;45078;51.654;21.250;2024-02-21T08:24:02;6.20;99.90
59311;DHT22;45078;51.654;21.250;2024-02-21T08:26:28;6.20;99.90
59311;DHT22;45078;51.654;21.250;2024-02-21T08:28:59;6.20;99.90
59311;DHT22;45078;51.654;21.250;2024-02-21T08:31:25;6.20;99.90
59311;DHT22;45078;51.654;21.250;2024-02-21T08:33:57;6.20;99.90
59311;DHT22;45078;51.654;21.250;2024-02-21T08:36:31;6.20;99.90
59311;DHT22;45078;51.654;21.250;2024-02-21T08:38:58;6.30;99.90
59311;DHT22;45078;51.654;21.250;2024-02-21T08:41:24;6.30;99.90
59311;DHT22;45078;51.654;21.250;2024-02-21T08:43:51;6.40;99.90
59311;DHT22;45078;51.654;21.250;2024-02-21T08:46:17;6.40;99.90
59311;DHT22;45078;51.654;21.250;2024-02-21T08:48:43;6.40;99.90
59311;DHT22;45078;51.654;21.250;2024-02-21T08:51:11;6.50;99.90
59311;DHT22;45078;51.654;21.250;2024-02-21T08:53:37;6.60;99.90
59311;DHT22;45078;51.654;21.250;2024-02-21T08:56:03;6.60;99.90
59311;DHT22;45078;51.654;21.250;2024-02-21T08:58:29;6.70;99.90
59311;DHT22;45078;51.654;21.250;2024-02-21T09:00:55;6.80;99.90
59311;DHT22;45078;51.654;21.250;2024-02-21T09:03:20;6.90;99.90
59311;DHT22;45078;51.654;21.250;2024-02-21T09:05:46;7.00;99.90
59311;DHT22;45078;51.654;21.250;2024-02-21T09:08:12;7.10;99.90
59311;DHT22;45078;51.654;21.250;2024-02-21T09:10:39;7.10;99.90
59311;DHT22;45078;51.654;21.250;2024-02-21T09:13:05;7.20;99.90
59311;DHT22;45078;51.654;21.250;2024-02-21T09:15:31;7.20;99.90
59311;DHT22;45078;51.654;21.250;2024-02-21T09:17:57;7.30;99.90
59311;DHT22;45078;51.654;21.250;2024-02-21T09:20:23;7.30;99.90
59311;DHT22;45078;51.654;21.250;2024-02-21T09:22:48;7.40;99.90
59311;DHT22;45078;51.654;21.250;2024-02-21T09:25:14;7.50;99.90
59311;DHT22;45078;51.654;21.250;2024-02-21T09:27:40;7.50;99.90
59311;DHT22;45078;51.654;21.250;2024-02-21T09:30:06;7.50;99.90
59311;DHT22;45078;51.654;21.250;2024-02-21T09:32:32;7.60;99.90
59311;DHT22;45078;51.654;21.250;2024-02-21T09:34:58;7.70;99.90
59311;DHT22;45078;51.654;21.250;2024-02-21T09:37:24;7.80;99.90
59311;DHT22;45078;51.654;21.250;2024-02-21T09:39:49;7.80;99.90
59311;DHT22;45078;51.654;21.250;2024-02-21T09:42:20;7.90;99.90
59311;DHT22;45078;51.654;21.250;2024-02-21T09:44:46;8.00;99.90
59311;DHT22;45078;51.654;21.250;2024-02-21T09:47:22;8.00;99.90
59311;DHT22;45078;51.654;21.250;2024-02-21T09:49:49;8.00;99.90
59311;DHT22;45078;51.654;21.250;2024-02-21T09:52:19;8.00;99.90
59311;DHT22;45078;51.654;21.250;2024-02-21T09:54:46;8.00;99.90
59311;DHT22;45078;51.654;21.250;2024-02-21T09:57:14;8.00;99.90
59311;DHT22;45078;51.654;21.250;2024-02-21T09:59:40;8.10;99.90
59311;DHT22;45078;51.654;21.250;2024-02-21T10:02:07;8.10;99.90
59311;DHT22;45078;51.654;21.250;2024-02-21T10:04:33;8.00;99.90
59311;DHT22;45078;51.654;21.250;2024-02-21T10:06:59;8.00;99.90
59311;DHT22;45078;51.654;21.250;2024-02-21T10:09:26;8.00;99.90
59311;DHT22;45078;51.654;21.250;2024-02-21T10:11:56;8.00;99.90
59311;DHT22;45078;51.654;21.250;2024-02-21T10:14:22;8.00;99.90
59311;DHT22;45078;51.654;21.250;2024-02-21T10:16:48;8.00;99.90
59311;DHT22;45078;51.654;21.250;2024-02-21T10:19:20;8.00;99.90
59311;DHT22;45078;51.654;21.250;2024-02-21T10:22:07;8.00;99.90
59311;DHT22;45078;51.654;21.250;2024-02-21T10:24:33;8.00;99.90
59311;DHT22;45078;51.654;21.250;2024-02-21T10:27:04;8.00;99.90
59311;DHT22;45078;51.654;21.250;2024-02-21T10:29:33;8.00;99.90
59311;DHT22;45078;51.654;21.250;2024-02-21T10:32:11;8.10;99.90
59311;DHT22;45078;51.654;21.250;2024-02-21T10:34:39;8.10;99.90
59311;DHT22;45078;51.654;21.250;2024-02-21T10:37:09;8.10;99.90
59311;DHT22;45078;51.654;21.250;2024-02-21T10:39:37;8.20;99.90
59311;DHT22;45078;51.654;21.250;2024-02-21T10:42:03;8.30;99.90
59311;DHT22;45078;51.654;21.250;2024-02-21T10:44:34;8.30;99.90
59311;DHT22;45078;51.654;21.250;2024-02-21T10:47:09;8.30;99.90
59311;DHT22;45078;51.654;21.250;2024-02-21T10:49:42;8.30;99.90
59311;DHT22;45078;51.654;21.250;2024-02-21T10:54:56;8.30;99.90
59311;DHT22;45078;51.654;21.250;2024-02-21T10:57:25;8.20;99.90
59311;DHT22;45078;51.654;21.250;2024-02-21T10:59:53;8.30;99.90
59311;DHT22;45078;51.654;21.250;2024-02-21T11:02:20;8.30;99.90
59311;DHT22;45078;51.654;21.250;2024-02-21T11:04:46;8.30;99.90
59311;DHT22;45078;51.654;21.250;2024-02-21T11:07:14;8.30;99.90
59311;DHT22;45078;51.654;21.250;2024-02-21T11:09:50;8.40;99.90
59311;DHT22;45078;51.654;21.250;2024-02-21T11:12:23;8.40;99.90
59311;DHT22;45078;51.654;21.250;2024-02-21T11:14:48;8.40;99.90
59311;DHT22;45078;51.654;21.250;2024-02-21T11:17:15;8.40;99.90
59311;DHT22;45078;51.654;21.250;2024-02-21T11:19:42;8.40;99.90
59311;DHT22;45078;51.654;21.250;2024-02-21T11:22:15;8.40;99.90
59311;DHT22;45078;51.654;21.250;2024-02-21T11:24:42;8.40;99.90
59311;DHT22;45078;51.654;21.250;2024-02-21T11:27:15;8.40;99.90
59311;DHT22;45078;51.654;21.250;2024-02-21T11:29:44;8.50;99.90
59311;DHT22;45078;51.654;21.250;2024-02-21T11:32:11;8.40;99.90
59311;DHT22;45078;51.654;21.250;2024-02-21T11:34:39;8.40;99.90
59311;DHT22;45078;51.654;21.250;2024-02-21T11:37:14;8.40;99.90
59311;DHT22;45078;51.654;21.250;2024-02-21T11:39:43;8.40;99.90
59311;DHT22;45078;51.654;21.250;2024-02-21T11:42:10;8.40;99.90
59311;DHT22;45078;51.654;21.250;2024-02-21T11:44:37;8.40;99.90
59311;DHT22;45078;51.654;21.250;2024-02-21T11:47:08;8.40;99.90
59311;DHT22;45078;51.654;21.250;2024-02-21T11:49:45;8.40;99.90
59311;DHT22;45078;51.654;21.250;2024-02-21T11:52:12;8.40;99.90
59311;DHT22;45078;51.654;21.250;2024-02-21T11:54:40;8.30;99.90
59311;DHT22;45078;51.654;21.250;2024-02-21T11:57:06;8.30;99.90
59311;DHT22;45078;51.654;21.250;2024-02-21T11:59:33;8.20;99.90
59311;DHT22;45078;51.654;21.250;2024-02-21T12:02:00;8.20;99.90
59311;DHT22;45078;51.654;21.250;2024-02-21T12:04:26;8.10;99.90
59311;DHT22;45078;51.654;21.250;2024-02-21T12:06:54;8.10;99.90
59311;DHT22;45078;51.654;21.250;2024-02-21T12:09:22;8.10;99.90
59311;DHT22;45078;51.654;21.250;2024-02-21T12:12:00;8.00;99.90
59311;DHT22;45078;51.654;21.250;2024-02-21T12:14:28;8.10;99.90
59311;DHT22;45078;51.654;21.250;2024-02-21T12:16:54;8.10;99.90
59311;DHT22;45078;51.654;21.250;2024-02-21T12:19:20;8.10;99.90
59311;DHT22;45078;51.654;21.250;2024-02-21T12:21:48;8.10;99.90
59311;DHT22;45078;51.654;21.250;2024-02-21T12:24:16;8.10;99.90
59311;DHT22;45078;51.654;21.250;2024-02-21T12:26:42;8.10;99.90
59311;DHT22;45078;51.654;21.250;2024-02-21T12:29:09;8.10;99.90
59311;DHT22;45078;51.654;21.250;2024-02-21T12:31:36;8.10;99.90
59311;DHT22;45078;51.654;21.250;2024-02-21T12:34:02;8.00;99.90
59311;DHT22;45078;51.654;21.250;2024-02-21T12:36:28;8.10;99.90
59311;DHT22;45078;51.654;21.250;2024-02-21T12:38:54;7.90;99.90
59311;DHT22;45078;51.654;21.250;2024-02-21T12:41:20;8.00;99.90
59311;DHT22;45078;51.654;21.250;2024-02-21T12:43:46;7.90;99.90
59311;DHT22;45078;51.654;21.250;2024-02-21T12:46:12;8.00;99.90
59311;DHT22;45078;51.654;21.250;2024-02-21T12:48:38;8.00;99.90
59311;DHT22;45078;51.654;21.250;2024-02-21T12:51:05;8.00;99.90
59311;DHT22;45078;51.654;21.250;2024-02-21T12:53:31;8.00;99.90
59311;DHT22;45078;51.654;21.250;2024-02-21T12:55:57;8.00;99.90
59311;DHT22;45078;51.654;21.250;2024-02-21T12:58:22;8.00;99.90
59311;DHT22;45078;51.654;21.250;2024-02-21T13:00:48;8.00;99.90
59311;DHT22;45078;51.654;21.250;2024-02-21T13:03:14;8.00;99.90
59311;DHT22;45078;51.654;21.250;2024-02-21T13:05:40;8.00;99.90
59311;DHT22;45078;51.654;21.250;2024-02-21T13:08:06;7.90;99.90
59311;DHT22;45078;51.654;21.250;2024-02-21T13:10:32;7.90;99.90
59311;DHT22;45078;51.654;21.250;2024-02-21T13:13:00;8.00;99.90
59311;DHT22;45078;51.654;21.250;2024-02-21T13:15:26;8.00;99.90
59311;DHT22;45078;51.654;21.250;2024-02-21T13:17:53;7.90;99.90
59311;DHT22;45078;51.654;21.250;2024-02-21T13:20:19;8.00;99.90
59311;DHT22;45078;51.654;21.250;2024-02-21T13:22:45;7.90;99.90
59311;DHT22;45078;51.654;21.250;2024-02-21T13:25:11;7.90;99.90
59311;DHT22;45078;51.654;21.250;2024-02-21T13:27:40;7.90;99.90
59311;DHT22;45078;51.654;21.250;2024-02-21T13:30:06;8.00;99.90
59311;DHT22;45078;51.654;21.250;2024-02-21T13:32:34;8.00;99.90
59311;DHT22;45078;51.654;21.250;2024-02-21T13:35:00;8.10;99.90
59311;DHT22;45078;51.654;21.250;2024-02-21T13:37:27;8.10;99.90
59311;DHT22;45078;51.654;21.250;2024-02-21T13:39:53;8.10;99.90
59311;DHT22;45078;51.654;21.250;2024-02-21T13:42:19;8.00;99.90
59311;DHT22;45078;51.654;21.250;2024-02-21T13:44:45;8.00;99.90
59311;DHT22;45078;51.654;21.250;2024-02-21T13:47:16;8.00;99.90
59311;DHT22;45078;51.654;21.250;2024-02-21T13:49:42;8.00;99.90
59311;DHT22;45078;51.654;21.250;2024-02-21T13:52:08;8.00;99.90
59311;DHT22;45078;51.654;21.250;2024-02-21T13:54:34;7.90;99.90
59311;DHT22;45078;51.654;21.250;2024-02-21T13:57:00;7.90;99.90
59311;DHT22;45078;51.654;21.250;2024-02-21T13:59:28;7.90;99.90
59311;DHT22;45078;51.654;21.250;2024-02-21T14:01:53;7.90;99.90
59311;DHT22;45078;51.654;21.250;2024-02-21T14:04:19;7.90;99.90
59311;DHT22;45078;51.654;21.250;2024-02-21T14:06:45;7.90;99.90
59311;DHT22;45078;51.654;21.250;2024-02-21T14:09:12;7.90;99.90
59311;DHT22;45078;51.654;21.250;2024-02-21T14:11:38;7.80;99.90
59311;DHT22;45078;51.654;21.250;2024-02-21T14:14:05;7.80;99.90
59311;DHT22;45078;51.654;21.250;2024-02-21T14:16:31;7.80;99.90
59311;DHT22;45078;51.654;21.250;2024-02-21T14:18:57;7.80;99.90
59311;DHT22;45078;51.654;21.250;2024-02-21T14:21:23;7.80;99.90
59311;DHT22;45078;51.654;21.250;2024-02-21T14:23:48;7.80;99.90
59311;DHT22;45078;51.654;21.250;2024-02-21T14:26:14;7.70;99.90
59311;DHT22;45078;51.654;21.250;2024-02-21T14:28:40;7.70;99.90
59311;DHT22;45078;51.654;21.250;2024-02-21T14:31:07;7.70;99.90
59311;DHT22;45078;51.654;21.250;2024-02-21T14:33:37;7.70;99.90
59311;DHT22;45078;51.654;21.250;2024-02-21T14:36:03;7.70;99.90
59311;DHT22;45078;51.654;21.250;2024-02-21T14:38:29;7.60;99.90
59311;DHT22;45078;51.654;21.250;2024-02-21T14:40:54;7.60;99.90
59311;DHT22;45078;51.654;21.250;2024-02-21T14:43:20;7.60;99.90
59311;DHT22;45078;51.654;21.250;2024-02-21T14:45:49;7.50;99.90
59311;DHT22;45078;51.654;21.250;2024-02-21T14:48:15;7.50;99.90
59311;DHT22;45078;51.654;21.250;2024-02-21T14:50:41;7.40;99.90
59311;DHT22;45078;51.654;21.250;2024-02-21T14:53:10;7.50;99.90
59311;DHT22;45078;51.654;21.250;2024-02-21T14:55:36;7.50;99.90
59311;DHT22;45078;51.654;21.250;2024-02-21T14:58:02;7.50;99.90
59311;DHT22;45078;51.654;21.250;2024-02-21T15:00:27;7.50;99.90
59311;DHT22;45078;51.654;21.250;2024-02-21T15:02:59;7.50;99.90
59311;DHT22;45078;51.654;21.250;2024-02-21T15:05:25;7.50;99.90
59311;DHT22;45078;51.654;21.250;2024-02-21T15:07:51;7.50;99.90
59311;DHT22;45078;51.654;21.250;2024-02-21T15:10:17;7.50;99.90
59311;DHT22;45078;51.654;21.250;2024-02-21T15:12:46;7.50;99.90
59311;DHT22;45078;51.654;21.250;2024-02-21T15:15:11;7.50;99.90
59311;DHT22;45078;51.654;21.250;2024-02-21T15:17:37;7.50;99.90
59311;DHT22;45078;51.654;21.250;2024-02-21T15:20:03;7.50;99.90
59311;DHT22;45078;51.654;21.250;2024-02-21T15:22:36;7.40;99.90
59311;DHT22;45078;51.654;21.250;2024-02-21T15:25:01;7.40;99.90
59311;DHT22;45078;51.654;21.250;2024-02-21T15:27:29;7.50;99.90
59311;DHT22;45078;51.654;21.250;2024-02-21T15:29:55;7.50;99.90